createdAt,value
2022-09-23T00:01:18.096Z,5.1
2022-09-23T00:07:01.895Z,4.9
2022-09-23T00:12:45.340Z,5
2022-09-23T00:18:28.846Z,4.7
2022-09-23T00:24:11.939Z,4.4
2022-09-23T00:29:55.342Z,4.7
2022-09-23T00:35:38.472Z,4.9
2022-09-23T00:41:21.935Z,4.4
2022-09-23T00:47:06.165Z,4.4
2022-09-23T00:52:50.447Z,4.3
2022-09-23T00:58:35.566Z,4.3
2022-09-23T01:04:18.812Z,4.6
2022-09-23T01:10:02.387Z,4.3
2022-09-23T01:15:48.817Z,4.3
2022-09-23T01:21:39.171Z,4.4
2022-09-23T01:27:29.199Z,4
2022-09-23T01:33:16.120Z,4.3
2022-09-23T01:39:02.562Z,4.2
2022-09-23T01:44:47.952Z,3.9
2022-09-23T01:50:33.580Z,4.1
2022-09-23T01:56:19.341Z,3.9
2022-09-23T02:02:05.598Z,3.8
2022-09-23T02:07:52.366Z,3.7
2022-09-23T02:13:38.964Z,3.7
2022-09-23T02:19:27.178Z,3.8
2022-09-23T02:25:11.525Z,3.8
2022-09-23T02:31:00.098Z,3.6
2022-09-23T02:36:47.422Z,3.7
2022-09-23T02:42:34.420Z,3.7
2022-09-23T02:48:22.487Z,3.5
2022-09-23T02:54:06.901Z,3.4
2022-09-23T02:59:50.174Z,3.6
2022-09-23T03:05:37.059Z,3.6
2022-09-23T03:11:20.467Z,3.5
2022-09-23T03:17:05.847Z,3.6
2022-09-23T03:22:51.439Z,3.3
2022-09-23T03:28:37.170Z,3.5
2022-09-23T03:34:24.226Z,3.9
2022-09-23T03:40:10.956Z,3.6
2022-09-23T03:45:54.913Z,3.5
2022-09-23T03:51:44.611Z,3.5
2022-09-23T03:57:27.857Z,3.5
2022-09-23T04:03:13.602Z,3.2
2022-09-23T04:08:57.996Z,3.4
2022-09-23T04:14:41.074Z,3.7
2022-09-23T04:20:24.426Z,3.1
2022-09-23T04:26:08.042Z,3.2
2022-09-23T04:31:51.880Z,3.3
2022-09-23T04:37:35.342Z,3.2
2022-09-23T04:43:18.840Z,3.2
2022-09-23T04:49:02.192Z,3.4
2022-09-23T04:54:45.843Z,3.1
2022-09-23T05:00:29.612Z,3.2
2022-09-23T05:06:14.688Z,3.2
2022-09-23T05:11:57.660Z,3.6
2022-09-23T05:17:40.797Z,3.3
2022-09-23T05:23:24.869Z,3.3
2022-09-23T05:29:08.249Z,3
2022-09-23T05:34:51.502Z,2.8
2022-09-23T05:40:34.938Z,2.8
2022-09-23T05:46:19.741Z,3.1
2022-09-23T05:52:03.589Z,2.7
2022-09-23T05:57:46.950Z,2.8
2022-09-23T06:03:30.336Z,2.9
2022-09-23T06:09:14.683Z,3.3
2022-09-23T06:14:57.902Z,2.9
2022-09-23T06:20:41.144Z,2.7
2022-09-23T06:26:24.628Z,2.8
2022-09-23T06:32:07.958Z,2.8
2022-09-23T06:37:51.607Z,2.8
2022-09-23T06:43:34.806Z,2.6
2022-09-23T06:49:18.123Z,2.7
2022-09-23T06:55:01.367Z,3
2022-09-23T07:00:44.471Z,2.7
2022-09-23T07:06:27.839Z,2.6
2022-09-23T07:12:11.116Z,2.6
2022-09-23T07:17:54.328Z,2.5
2022-09-23T07:23:37.535Z,2.5
2022-09-23T07:29:21.129Z,2.6
2022-09-23T07:35:04.286Z,2.8
2022-09-23T07:40:48.067Z,2.8
2022-09-23T07:46:32.783Z,2.7
2022-09-23T07:52:16.134Z,3.4
2022-09-23T07:57:59.423Z,3.2
2022-09-23T08:03:42.559Z,3.5
2022-09-23T08:09:26.406Z,3.8
2022-09-23T08:15:10.595Z,4
2022-09-23T08:20:53.958Z,4.2
2022-09-23T08:26:37.598Z,4.4
2022-09-23T08:32:20.985Z,4.6
2022-09-23T08:38:04.578Z,4.6
2022-09-23T08:43:51.171Z,4.7
2022-09-23T08:49:37.266Z,4.8
2022-09-23T08:55:20.891Z,4.5
2022-09-23T09:01:09.514Z,4.7
2022-09-23T09:07:24.846Z,4.8
2022-09-23T09:13:02.351Z,4.7
2022-09-23T09:18:50.430Z,4.6
2022-09-23T09:24:35.533Z,4.2
2022-09-23T09:30:20.271Z,4.1
2022-09-23T09:36:08.519Z,4.4
2022-09-23T09:41:52.795Z,4.2
2022-09-23T09:47:41.558Z,4
2022-09-23T09:53:27.123Z,4.4
2022-09-23T09:59:12.962Z,3.4
2022-09-23T10:05:01.222Z,3.6
2022-09-23T10:10:49.304Z,3.6
2022-09-23T10:16:34.015Z,3.2
2022-09-23T10:22:22.023Z,3.4
2022-09-23T10:28:10.383Z,3.2
2022-09-23T10:33:54.552Z,3.1
2022-09-23T10:39:37.857Z,2.9
2022-09-23T10:45:27.202Z,3.2
2022-09-23T10:51:14.985Z,2.9
2022-09-23T10:57:03.349Z,2.9
2022-09-23T11:02:54.859Z,2.9
2022-09-23T11:08:44.999Z,2.6
2022-09-23T11:14:34.539Z,2.6
2022-09-23T11:20:28.380Z,2.7
2022-09-23T11:26:18.903Z,2.5
2022-09-23T11:32:09.400Z,2.5
2022-09-23T11:37:57.439Z,2.7
2022-09-23T11:43:42.610Z,2.5
2022-09-23T11:49:28.103Z,2.5
2022-09-23T11:55:23.903Z,2.3
2022-09-23T12:01:11.024Z,2.3
2022-09-23T12:07:05.643Z,2.2
2022-09-23T12:12:52.987Z,2.3
2022-09-23T12:18:43.504Z,1.9
2022-09-23T12:24:37.754Z,2.1
2022-09-23T12:30:23.605Z,2.3
2022-09-23T12:36:10.594Z,2.2
2022-09-23T12:41:57.995Z,2
2022-09-23T12:47:43.557Z,2.3
2022-09-23T12:53:46.578Z,2.2
2022-09-23T12:59:31.045Z,2.3
2022-09-23T13:05:20.481Z,2.1
2022-09-23T13:11:07.467Z,2.1
2022-09-23T13:16:51.260Z,2
2022-09-23T13:22:52.333Z,2
2022-09-23T13:28:43.383Z,2.1
2022-09-23T13:34:30.404Z,2.1
2022-09-23T13:40:19.228Z,2
2022-09-23T13:46:04.132Z,2.1
2022-09-23T13:51:47.439Z,2.1
2022-09-23T13:57:31.552Z,3.1
2022-09-23T14:03:25.679Z,2.6
2022-09-23T14:09:08.993Z,2.7
2022-09-23T14:14:53.972Z,2.8
2022-09-23T14:20:42.146Z,2.8
2022-09-23T14:26:25.667Z,2.5
2022-09-23T14:32:13.180Z,2.4
2022-09-23T14:37:57.848Z,2.5
2022-09-23T14:43:41.258Z,2.5
2022-09-23T14:49:25.114Z,2.3
2022-09-23T14:55:16.833Z,2.3
2022-09-23T15:01:01.628Z,2.3
2022-09-23T15:06:47.265Z,2.3
2022-09-23T15:12:31.603Z,2.5
2022-09-23T15:18:18.650Z,2.2
2022-09-23T15:24:02.180Z,2.2
2022-09-23T15:29:45.696Z,2
2022-09-23T15:35:31.629Z,2.4
2022-09-23T15:41:15.357Z,2.3
2022-09-23T15:47:00.052Z,2
2022-09-23T15:52:43.509Z,2.2
2022-09-23T15:58:28.193Z,2.1
2022-09-23T16:04:11.809Z,2
2022-09-23T16:09:54.993Z,2.1
2022-09-23T16:15:38.666Z,2.2
2022-09-23T16:21:22.748Z,2.2
2022-09-23T16:27:08.215Z,2.4
2022-09-23T16:32:51.436Z,2.3
2022-09-23T16:38:34.566Z,2.3
2022-09-23T16:44:17.687Z,2.1
2022-09-23T16:50:01.224Z,2.3
2022-09-23T16:55:44.857Z,2.5
2022-09-23T17:01:29.253Z,2.4
2022-09-23T17:07:12.626Z,2.6
2022-09-23T17:12:55.857Z,2.6
2022-09-23T17:18:39.134Z,2.6
2022-09-23T17:24:22.551Z,2.7
2022-09-23T17:30:06.406Z,2.3
2022-09-23T17:35:49.529Z,2.5
2022-09-23T17:41:32.818Z,2.5
2022-09-23T17:47:15.991Z,2.4
2022-09-23T17:52:59.443Z,2.7
2022-09-23T17:58:42.726Z,2.6
2022-09-23T18:04:26.030Z,3
2022-09-23T18:10:09.999Z,2.9
2022-09-23T18:15:53.387Z,3.2
2022-09-23T18:21:37.439Z,3.5
2022-09-23T18:27:20.657Z,3.6
2022-09-23T18:33:04.817Z,3.3
2022-09-23T18:38:48.477Z,3.2
2022-09-23T18:44:31.700Z,3.5
2022-09-23T18:50:15.240Z,3.4
2022-09-23T18:55:59.162Z,3.7
2022-09-23T19:01:42.964Z,3.7
2022-09-23T19:07:26.376Z,4
2022-09-23T19:13:09.719Z,3.6
2022-09-23T19:18:54.038Z,3.8
2022-09-23T19:24:37.056Z,3.7
2022-09-23T19:30:21.371Z,4
2022-09-23T19:36:05.113Z,3.9
2022-09-23T19:41:48.656Z,4.1
2022-09-23T19:47:31.736Z,4.9
2022-09-23T19:53:15.580Z,5.1
2022-09-23T19:58:58.702Z,4.6
2022-09-23T20:04:41.550Z,4.7
2022-09-23T20:10:24.942Z,5
2022-09-23T20:16:08.494Z,4.6
2022-09-23T20:21:51.884Z,4.9
2022-09-23T20:27:35.194Z,5
2022-09-23T20:33:18.473Z,4.7
2022-09-23T20:39:02.318Z,4.9
2022-09-23T20:44:46.058Z,4.9
2022-09-23T20:50:29.610Z,5
2022-09-23T20:56:13.101Z,5.5
2022-09-23T21:01:56.556Z,5.1
2022-09-23T21:07:39.960Z,5.4
2022-09-23T21:13:23.431Z,5.5
2022-09-23T21:19:06.603Z,5.8
2022-09-23T21:30:54.262Z,5.5
2022-09-23T21:36:38.471Z,5.5
2022-09-23T21:42:27.771Z,5.7
2022-09-23T21:48:11.095Z,5.1
2022-09-23T21:53:55.072Z,5.4
2022-09-23T21:59:38.300Z,5.1
2022-09-23T22:05:21.544Z,5.5
2022-09-23T22:11:05.257Z,5.3
2022-09-23T22:16:48.810Z,5.2
2022-09-23T22:22:32.011Z,5.3
2022-09-23T22:28:15.128Z,4.9
2022-09-23T22:33:58.290Z,5.1
2022-09-23T22:39:41.900Z,5
2022-09-23T22:45:25.250Z,5.1
2022-09-23T22:51:09.925Z,4.9
2022-09-23T22:56:53.138Z,4.7
2022-09-23T23:02:36.489Z,5
2022-09-23T23:08:20.274Z,4.8
2022-09-23T23:14:03.687Z,5
2022-09-23T23:19:47.220Z,4.9
2022-09-23T23:25:30.474Z,4.7
2022-09-23T23:31:14.719Z,5.1
2022-09-23T23:36:58.221Z,4.6
2022-09-23T23:42:41.735Z,4.8
2022-09-23T23:48:24.866Z,4.7
2022-09-23T23:54:08.450Z,4.9
2022-09-23T23:59:51.758Z,4.6
